createdAt,value
2018-12-01T00:01:07.017Z,2.72
2018-12-01T00:03:36.751Z,3.25
2018-12-01T00:06:06.844Z,2.67
2018-12-01T00:08:36.570Z,2.80
2018-12-01T00:11:06.706Z,2.95
2018-12-01T00:13:36.430Z,3.27
2018-12-01T00:16:06.311Z,2.10
2018-12-01T00:18:36.132Z,2.37
2018-12-01T00:21:06.311Z,2.40
2018-12-01T00:23:36.107Z,3.60
2018-12-01T00:26:06.116Z,3.00
2018-12-01T00:28:36.696Z,2.70
2018-12-01T00:31:06.444Z,2.80
2018-12-01T00:33:36.138Z,3.80
2018-12-01T00:36:06.172Z,2.65
2018-12-01T00:38:35.943Z,3.02
2018-12-01T00:41:06.065Z,2.90
2018-12-01T00:43:35.820Z,2.83
2018-12-01T00:46:06.491Z,2.62
2018-12-01T00:48:36.731Z,3.15
2018-12-01T00:51:06.799Z,2.50
2018-12-01T00:53:37.091Z,2.70
2018-12-01T00:56:07.035Z,2.67
2018-12-01T00:58:36.736Z,2.10
2018-12-01T01:01:07.447Z,2.33
2018-12-01T01:03:37.279Z,3.22
2018-12-01T01:06:07.548Z,3.12
2018-12-01T01:08:37.853Z,2.55
2018-12-01T01:11:07.599Z,3.27
2018-12-01T01:13:37.316Z,2.85
2018-12-01T01:16:07.644Z,3.00
2018-12-01T01:18:37.355Z,2.27
2018-12-01T01:21:07.312Z,3.80
2018-12-01T01:23:37.083Z,2.70
2018-12-01T01:26:06.948Z,2.83
2018-12-01T01:28:36.682Z,3.37
2018-12-01T01:31:06.703Z,2.70
2018-12-01T01:33:36.474Z,2.45
2018-12-01T01:36:07.307Z,3.10
2018-12-01T01:38:37.159Z,2.12
2018-12-01T01:41:07.576Z,2.30
2018-12-01T01:43:38.126Z,2.40
2018-12-01T01:46:08.117Z,1.92
2018-12-01T01:48:37.844Z,2.80
2018-12-01T01:51:07.898Z,2.98
2018-12-01T01:53:37.604Z,2.08
2018-12-01T01:56:07.386Z,1.67
2018-12-01T01:58:37.132Z,2.70
2018-12-01T02:01:08.245Z,2.75
2018-12-01T02:03:38.577Z,2.33
2018-12-01T02:06:08.489Z,3.08
2018-12-01T02:08:38.272Z,2.55
2018-12-01T02:11:08.306Z,2.35
2018-12-01T02:13:38.043Z,2.35
2018-12-01T02:16:07.738Z,2.12
2018-12-01T02:18:37.415Z,2.20
2018-12-01T02:21:08.223Z,2.62
2018-12-01T02:23:38.126Z,2.42
2018-12-01T02:26:08.094Z,2.72
2018-12-01T02:28:37.787Z,4.08
2018-12-01T02:38:03.148Z,2.45
2018-12-01T02:40:33.666Z,2.00
2018-12-01T02:43:03.495Z,2.10
2018-12-01T02:45:50.143Z,2.62
2018-12-01T02:48:19.796Z,2.15
2018-12-01T02:50:49.603Z,2.10
2018-12-01T02:53:19.402Z,2.30
2018-12-01T02:55:49.075Z,2.90
2018-12-01T02:58:19.358Z,2.70
2018-12-01T03:00:49.585Z,2.40
2018-12-01T03:03:19.328Z,2.85
2018-12-01T03:05:49.023Z,2.70
2018-12-01T03:08:18.672Z,2.52
2018-12-01T03:10:48.379Z,2.70
2018-12-01T03:13:18.014Z,2.35
2018-12-01T03:15:47.715Z,3.55
2018-12-01T03:18:17.371Z,2.62
2018-12-01T03:20:47.302Z,3.05
2018-12-01T03:23:17.129Z,2.75
2018-12-01T03:25:47.475Z,3.58
2018-12-01T03:28:17.223Z,2.20
2018-12-01T03:30:46.989Z,3.00
2018-12-01T03:33:16.910Z,2.50
2018-12-01T03:35:46.861Z,2.30
2018-12-01T03:38:16.512Z,3.10
2018-12-01T03:40:48.117Z,3.12
2018-12-01T03:43:18.007Z,3.62
2018-12-01T03:45:47.739Z,3.25
2018-12-01T03:48:17.479Z,2.65
2018-12-01T03:50:47.300Z,2.52
2018-12-01T03:53:17.861Z,2.50
2018-12-01T03:55:50.466Z,2.50
2018-12-01T03:58:20.107Z,2.33
2018-12-01T04:00:49.962Z,2.50
2018-12-01T04:03:19.624Z,2.72
2018-12-01T04:05:49.419Z,2.75
2018-12-01T04:08:19.107Z,2.45
2018-12-01T04:10:48.867Z,2.40
2018-12-01T04:13:18.622Z,3.05
2018-12-01T04:15:54.851Z,2.60
2018-12-01T04:18:24.522Z,2.87
2018-12-01T04:20:54.237Z,2.45
2018-12-01T04:23:23.930Z,2.55
2018-12-01T04:25:53.668Z,2.75
2018-12-01T04:28:23.535Z,2.90
2018-12-01T04:30:53.323Z,2.15
2018-12-01T04:33:23.011Z,2.17
2018-12-01T04:35:52.730Z,2.90
2018-12-01T04:38:22.556Z,2.45
2018-12-01T04:40:52.184Z,2.90
2018-12-01T04:43:21.891Z,2.08
2018-12-01T04:45:51.679Z,3.00
2018-12-01T04:48:21.412Z,2.85
2018-12-01T04:50:51.116Z,2.55
2018-12-01T04:53:20.809Z,2.85
2018-12-01T04:55:50.580Z,2.50
2018-12-01T04:58:20.231Z,2.62
2018-12-01T05:00:50.016Z,3.08
2018-12-01T05:03:19.729Z,3.17
2018-12-01T05:05:49.621Z,2.85
2018-12-01T05:08:19.314Z,2.33
2018-12-01T05:10:49.022Z,2.58
2018-12-01T05:13:18.728Z,2.70
2018-12-01T05:15:48.388Z,2.85
2018-12-01T05:18:18.040Z,2.15
2018-12-01T05:20:47.776Z,2.67
2018-12-01T05:23:17.951Z,2.30
2018-12-01T05:25:47.640Z,2.55
2018-12-01T05:28:17.298Z,2.60
2018-12-01T05:30:47.025Z,2.22
2018-12-01T05:33:16.705Z,2.72
2018-12-01T05:35:46.395Z,2.50
2018-12-01T05:38:16.115Z,2.90
2018-12-01T05:40:45.748Z,2.70
2018-12-01T05:43:15.531Z,2.30
2018-12-01T05:45:45.214Z,2.55
2018-12-01T05:48:14.871Z,2.20
2018-12-01T05:50:44.733Z,2.75
2018-12-01T05:53:14.430Z,2.62
2018-12-01T05:55:44.100Z,2.60
2018-12-01T05:58:13.773Z,1.95
2018-12-01T06:00:43.526Z,2.60
2018-12-01T06:03:13.217Z,2.50
2018-12-01T06:05:42.907Z,1.90
2018-12-01T06:08:12.620Z,3.67
2018-12-01T06:10:42.459Z,4.35
2018-12-01T06:13:12.235Z,2.65
2018-12-01T06:15:41.931Z,1.85
2018-12-01T06:18:11.643Z,2.22
2018-12-01T06:20:42.163Z,2.17
2018-12-01T06:23:12.139Z,2.70
2018-12-01T06:25:41.847Z,2.27
2018-12-01T06:28:11.695Z,2.33
2018-12-01T06:30:41.371Z,2.12
2018-12-01T06:33:11.133Z,2.40
2018-12-01T06:35:40.842Z,3.40
2018-12-01T06:38:10.651Z,4.42
2018-12-01T06:40:40.311Z,4.80
2018-12-01T06:43:09.970Z,3.60
2018-12-01T06:45:39.655Z,3.20
2018-12-01T06:48:09.409Z,3.45
2018-12-01T06:50:40.455Z,4.00
2018-12-01T06:53:11.264Z,2.72
2018-12-01T06:55:41.415Z,2.83
2018-12-01T06:58:11.215Z,2.27
2018-12-01T07:00:40.915Z,2.95
2018-12-01T07:03:10.564Z,3.90
2018-12-01T07:05:40.272Z,2.75
2018-12-01T07:08:09.950Z,2.45
2018-12-01T07:10:40.219Z,2.83
2018-12-01T07:13:10.224Z,3.90
2018-12-01T07:15:41.392Z,3.72
2018-12-01T07:18:27.906Z,2.87
2018-12-01T07:20:57.602Z,2.85
2018-12-01T07:23:27.514Z,4.12
2018-12-01T07:25:57.180Z,2.90
2018-12-01T07:28:27.085Z,3.77
2018-12-01T07:30:56.905Z,2.90
2018-12-01T07:33:26.685Z,3.10
2018-12-01T07:35:56.352Z,2.75
2018-12-01T07:38:26.020Z,2.83
2018-12-01T07:40:55.672Z,3.12
2018-12-01T07:43:25.339Z,2.72
2018-12-01T07:45:55.929Z,3.72
2018-12-01T07:48:25.682Z,3.22
2018-12-01T07:50:55.575Z,2.77
2018-12-01T07:53:25.358Z,3.35
2018-12-01T07:55:55.403Z,2.80
2018-12-01T07:58:25.095Z,3.12
2018-12-01T08:00:54.866Z,3.08
2018-12-01T08:03:24.640Z,2.02
2018-12-01T08:05:54.338Z,3.10
2018-12-01T08:08:24.259Z,2.85
2018-12-01T08:10:53.941Z,3.20
2018-12-01T08:13:23.780Z,2.87
2018-12-01T08:15:53.582Z,3.27
2018-12-01T08:18:23.359Z,3.20
2018-12-01T08:20:53.944Z,2.80
2018-12-01T08:23:23.751Z,2.85
2018-12-01T08:25:53.701Z,3.65
2018-12-01T08:28:25.861Z,3.35
2018-12-01T08:30:55.684Z,3.05
2018-12-01T08:33:25.428Z,2.72
2018-12-01T08:35:55.733Z,3.33
2018-12-01T08:38:25.736Z,3.08
2018-12-01T08:40:55.427Z,3.42
2018-12-01T08:43:25.265Z,3.37
2018-12-01T08:45:55.100Z,3.30
2018-12-01T08:48:24.833Z,3.77
2018-12-01T08:50:57.796Z,3.25
2018-12-01T08:53:27.843Z,3.33
2018-12-01T08:55:57.693Z,4.65
2018-12-01T08:58:27.432Z,3.83
2018-12-01T09:00:57.267Z,3.60
2018-12-01T09:03:27.059Z,3.42
2018-12-01T09:05:56.906Z,3.22
2018-12-01T09:08:26.662Z,3.77
2018-12-01T09:10:56.391Z,2.40
2018-12-01T09:13:26.193Z,2.60
2018-12-01T09:15:55.855Z,3.80
2018-12-01T09:18:25.877Z,3.67
2018-12-01T09:20:55.635Z,3.12
2018-12-01T09:23:25.424Z,3.62
2018-12-01T09:25:55.578Z,2.70
2018-12-01T09:28:25.290Z,3.40
2018-12-01T09:30:54.991Z,3.45
2018-12-01T09:33:24.997Z,3.77
2018-12-01T09:35:54.736Z,4.12
2018-12-01T09:38:24.480Z,3.67
2018-12-01T09:40:54.946Z,2.72
2018-12-01T09:43:24.778Z,3.05
2018-12-01T09:45:54.486Z,3.35
2018-12-01T09:48:24.310Z,4.10
2018-12-01T09:50:54.264Z,3.30
2018-12-01T09:53:24.150Z,2.77
2018-12-01T09:55:54.143Z,3.23
2018-12-01T09:58:23.924Z,3.30
2018-12-01T10:00:53.675Z,2.98
2018-12-01T10:03:23.365Z,4.20
2018-12-01T10:05:53.044Z,3.37
2018-12-01T10:08:22.786Z,3.83
2018-12-01T10:10:52.555Z,4.50
2018-12-01T10:13:22.763Z,3.90
2018-12-01T10:15:52.543Z,2.53
2018-12-01T10:18:22.232Z,3.70
2018-12-01T10:20:52.072Z,2.73
2018-12-01T10:23:21.756Z,3.60
2018-12-01T10:25:51.572Z,3.73
2018-12-01T10:28:21.499Z,3.23
2018-12-01T10:30:51.177Z,3.00
2018-12-01T10:33:20.951Z,3.27
2018-12-01T10:35:50.664Z,2.80
2018-12-01T10:38:20.578Z,2.47
2018-12-01T10:40:50.392Z,2.60
2018-12-01T10:43:20.124Z,2.40
2018-12-01T10:45:49.827Z,3.33
2018-12-01T10:48:19.539Z,2.70
2018-12-01T10:50:49.288Z,1.73
2018-12-01T10:53:19.030Z,2.40
2018-12-01T10:55:48.792Z,1.53
2018-12-01T10:58:20.689Z,1.73
2018-12-01T11:00:57.376Z,2.47
2018-12-01T11:03:35.243Z,2.37
2018-12-01T11:06:09.562Z,1.73
2018-12-01T11:08:39.630Z,1.90
2018-12-01T11:11:09.829Z,2.20
2018-12-01T11:13:39.611Z,1.50
2018-12-01T11:16:09.715Z,1.40
2018-12-01T11:18:39.582Z,1.70
2018-12-01T11:21:09.277Z,1.40
2018-12-01T11:23:38.977Z,1.73
2018-12-01T11:26:08.760Z,1.20
2018-12-01T11:28:38.762Z,1.50
2018-12-01T11:31:09.232Z,1.50
2018-12-01T11:33:38.996Z,1.93
2018-12-01T11:36:08.792Z,1.93
2018-12-01T11:38:38.613Z,1.40
2018-12-01T11:41:09.599Z,1.70
2018-12-01T11:43:39.336Z,1.90
2018-12-01T11:46:09.078Z,2.50
2018-12-01T11:48:38.929Z,2.20
2018-12-01T11:51:08.796Z,1.80
2018-12-01T11:53:38.501Z,1.60
2018-12-01T11:56:08.770Z,1.67
2018-12-01T11:58:39.099Z,1.70
2018-12-01T12:01:08.870Z,2.17
2018-12-01T12:03:38.800Z,1.53
2018-12-01T12:06:08.679Z,1.80
2018-12-01T12:08:38.527Z,1.80
2018-12-01T12:11:08.969Z,2.13
2018-12-01T12:13:38.786Z,1.80
2018-12-01T12:16:09.108Z,1.70
2018-12-01T12:18:39.551Z,1.70
2018-12-01T12:21:09.360Z,2.00
2018-12-01T12:23:39.113Z,1.93
2018-12-01T12:26:08.947Z,1.97
2018-12-01T12:28:38.636Z,2.00
2018-12-01T12:31:09.013Z,1.40
2018-12-01T12:33:39.156Z,2.17
2018-12-01T12:36:08.831Z,1.13
2018-12-01T12:38:38.531Z,1.30
2018-12-01T12:41:08.217Z,1.23
2018-12-01T12:43:37.915Z,1.57
2018-12-01T12:46:07.668Z,1.60
2018-12-01T12:48:37.428Z,1.90
2018-12-01T12:51:07.226Z,1.30
2018-12-01T12:53:37.170Z,1.90
2018-12-01T12:56:07.301Z,1.33
2018-12-01T12:58:36.985Z,1.50
2018-12-01T13:01:07.103Z,1.57
2018-12-01T13:03:36.792Z,1.50
2018-12-01T13:06:07.211Z,1.23
2018-12-01T13:08:37.086Z,1.47
2018-12-01T13:11:07.027Z,1.30
2018-12-01T13:13:36.788Z,1.07
2018-12-01T13:16:06.749Z,1.27
2018-12-01T13:18:37.195Z,1.00
2018-12-01T13:21:07.823Z,1.50
2018-12-01T13:23:38.401Z,1.07
2018-12-01T13:26:08.337Z,1.23
2018-12-01T13:28:38.272Z,1.30
2018-12-01T13:31:08.643Z,1.43
2018-12-01T13:33:38.438Z,1.93
2018-12-01T13:36:08.237Z,1.23
2018-12-01T13:38:38.200Z,1.30
2018-12-01T13:41:08.000Z,1.60
2018-12-01T13:43:37.898Z,1.53
2018-12-01T13:46:08.345Z,1.57
2018-12-01T13:48:37.504Z,2.20
2018-12-01T13:51:07.415Z,1.10
2018-12-01T13:53:37.308Z,1.43
2018-12-01T13:56:07.169Z,1.47
2018-12-01T13:58:36.926Z,1.63
2018-12-01T14:01:07.011Z,1.57
2018-12-01T14:03:36.726Z,1.37
2018-12-01T14:06:07.216Z,1.27
2018-12-01T14:08:36.942Z,1.50
2018-12-01T14:11:07.533Z,1.80
2018-12-01T14:13:37.296Z,1.03
2018-12-01T14:16:06.996Z,1.13
2018-12-01T14:18:37.037Z,1.67
2018-12-01T14:21:06.835Z,1.90
2018-12-01T14:23:37.164Z,1.47
2018-12-01T14:26:07.202Z,1.50
2018-12-01T14:28:37.029Z,1.40
2018-12-01T14:31:07.285Z,1.30
2018-12-01T14:33:37.865Z,1.60
2018-12-01T14:36:07.779Z,1.33
2018-12-01T14:38:37.668Z,1.40
2018-12-01T14:41:08.033Z,1.03
2018-12-01T14:43:37.736Z,1.30
2018-12-01T14:46:07.798Z,1.90
2018-12-01T14:48:37.781Z,1.60
2018-12-01T14:51:07.601Z,1.47
2018-12-01T14:53:37.368Z,1.47
2018-12-01T14:56:07.781Z,1.57
2018-12-01T14:58:42.279Z,1.23
2018-12-01T15:01:07.487Z,1.50
2018-12-01T15:03:37.207Z,1.10
2018-12-01T15:06:07.461Z,1.40
2018-12-01T15:08:37.135Z,1.23
2018-12-01T15:11:07.237Z,1.40
2018-12-01T15:13:36.989Z,1.60
2018-12-01T15:16:07.344Z,1.70
2018-12-01T15:18:37.612Z,1.10
2018-12-01T15:21:08.399Z,1.70
2018-12-01T15:23:38.214Z,1.80
2018-12-01T15:26:07.923Z,1.20
2018-12-01T15:28:37.740Z,1.60
2018-12-01T15:31:07.607Z,1.53
2018-12-01T15:33:37.389Z,1.47
2018-12-01T15:36:07.555Z,1.73
2018-12-01T15:38:37.520Z,2.20
2018-12-01T15:41:07.310Z,1.70
2018-12-01T15:43:37.169Z,2.07
2018-12-01T15:46:07.138Z,1.35
2018-12-01T15:48:36.917Z,2.02
2018-12-01T15:51:06.855Z,1.65
2018-12-01T15:53:36.679Z,2.17
2018-12-01T15:56:06.827Z,2.52
2018-12-01T15:58:37.277Z,2.20
2018-12-01T16:01:07.187Z,1.85
2018-12-01T16:03:37.064Z,1.57
2018-12-01T16:06:07.057Z,2.00
2018-12-01T16:08:36.875Z,1.50
2018-12-01T16:11:07.534Z,2.20
2018-12-01T16:13:37.369Z,1.40
2018-12-01T16:16:09.701Z,1.50
2018-12-01T16:18:39.519Z,2.52
2018-12-01T16:21:09.310Z,2.83
2018-12-01T16:23:38.957Z,2.70
2018-12-01T16:26:09.016Z,2.20
2018-12-01T16:28:38.747Z,2.00
2018-12-01T16:31:08.725Z,2.10
2018-12-01T16:33:38.440Z,2.30
2018-12-01T16:36:08.700Z,1.82
2018-12-01T16:38:38.745Z,2.30
2018-12-01T16:41:25.672Z,1.60
2018-12-01T16:43:55.520Z,2.77
2018-12-01T16:46:25.508Z,1.80
2018-12-01T16:49:01.744Z,2.42
2018-12-01T16:51:31.950Z,1.90
2018-12-01T16:54:01.811Z,2.65
2018-12-01T16:56:31.587Z,2.00
2018-12-01T16:59:01.472Z,2.67
2018-12-01T17:01:31.288Z,2.57
2018-12-01T17:04:01.039Z,3.60
2018-12-01T17:06:30.890Z,2.20
2018-12-01T17:09:00.696Z,2.12
2018-12-01T17:11:30.602Z,1.80
2018-12-01T17:14:00.509Z,2.80
2018-12-01T17:16:30.444Z,1.55
2018-12-01T17:19:01.753Z,1.85
2018-12-01T17:21:31.692Z,2.10
2018-12-01T17:24:01.445Z,1.80
2018-12-01T17:26:31.174Z,2.20
2018-12-01T17:29:00.974Z,2.87
2018-12-01T17:31:31.467Z,1.60
2018-12-01T17:34:01.294Z,1.98
2018-12-01T17:36:31.427Z,2.07
2018-12-01T17:39:01.544Z,2.65
2018-12-01T17:41:32.455Z,2.80
2018-12-01T17:44:11.357Z,2.00
2018-12-01T17:46:41.221Z,2.35
2018-12-01T17:49:11.073Z,2.25
2018-12-01T17:51:40.956Z,2.20
2018-12-01T17:54:15.694Z,1.82
2018-12-01T17:56:45.678Z,2.10
2018-12-01T17:59:15.420Z,3.42
2018-12-01T18:01:46.960Z,2.47
2018-12-01T18:04:16.828Z,2.45
2018-12-01T18:06:46.757Z,3.10
2018-12-01T18:09:16.546Z,2.50
2018-12-01T18:11:46.450Z,2.80
2018-12-01T18:14:16.311Z,1.70
2018-12-01T18:16:46.162Z,1.85
2018-12-01T18:19:16.594Z,1.60
2018-12-01T18:21:46.547Z,1.90
2018-12-01T18:24:16.423Z,2.37
2018-12-01T18:26:46.169Z,2.80
2018-12-01T18:29:16.049Z,2.30
2018-12-01T18:31:45.969Z,2.00
2018-12-01T18:34:17.191Z,2.47
2018-12-01T18:36:46.962Z,1.72
2018-12-01T18:39:19.906Z,2.00
2018-12-01T18:41:49.720Z,1.67
2018-12-01T18:44:19.755Z,2.02
2018-12-01T18:46:49.640Z,2.17
2018-12-01T18:49:19.447Z,2.75
2018-12-01T18:51:49.305Z,1.90
2018-12-01T18:54:19.690Z,1.65
2018-12-01T18:56:49.445Z,1.50
2018-12-01T18:59:19.337Z,2.10
2018-12-01T19:08:40.255Z,3.37
2018-12-01T19:11:10.290Z,2.40
2018-12-01T19:13:40.185Z,2.62
2018-12-01T19:16:10.533Z,3.30
2018-12-01T19:18:41.108Z,4.33
2018-12-01T19:21:10.852Z,2.67
2018-12-01T19:23:41.579Z,3.83
2018-12-01T19:26:11.395Z,4.50
2018-12-01T19:28:41.222Z,1.80
2018-12-01T19:31:11.489Z,2.83
2018-12-01T19:33:41.243Z,4.30
2018-12-01T19:36:11.027Z,3.10
2018-12-01T19:38:40.735Z,2.33
2018-12-01T19:41:10.515Z,3.03
2018-12-01T19:43:40.306Z,3.42
2018-12-01T19:46:10.208Z,3.30
2018-12-01T19:48:39.962Z,3.50
2018-12-01T19:51:09.935Z,1.60
2018-12-01T19:53:39.838Z,1.90
2018-12-01T19:56:09.794Z,2.70
2018-12-01T19:58:39.626Z,1.90
2018-12-01T20:01:09.471Z,2.20
2018-12-01T20:03:39.591Z,2.45
2018-12-01T20:06:09.790Z,2.00
2018-12-01T20:08:39.689Z,1.90
2018-12-01T20:11:10.559Z,2.20
2018-12-01T20:13:46.180Z,2.33
2018-12-01T20:16:34.320Z,2.37
2018-12-01T20:19:04.198Z,2.43
2018-12-01T20:21:34.026Z,2.90
2018-12-01T20:24:04.179Z,2.90
2018-12-01T20:26:34.112Z,1.67
2018-12-01T20:29:04.063Z,2.50
2018-12-01T20:31:33.964Z,1.80
2018-12-01T20:34:04.645Z,2.60
2018-12-01T20:37:18.300Z,2.10
2018-12-01T20:39:48.131Z,2.10
2018-12-01T20:42:17.968Z,1.87
2018-12-01T20:44:48.062Z,1.70
2018-12-01T20:47:17.789Z,1.57
2018-12-01T20:49:47.899Z,1.40
2018-12-01T20:52:17.618Z,1.70
2018-12-01T20:54:48.207Z,1.10
2018-12-01T20:57:23.133Z,1.10
2018-12-01T20:59:53.188Z,1.03
2018-12-01T21:02:23.043Z,1.70
2018-12-01T21:04:53.655Z,1.03
2018-12-01T21:07:23.541Z,0.90
2018-12-01T21:09:53.365Z,0.80
2018-12-01T21:12:23.128Z,1.10
2018-12-01T21:14:53.030Z,1.30
2018-12-01T21:17:22.787Z,1.57
2018-12-01T21:19:52.788Z,1.43
2018-12-01T21:22:22.549Z,1.30
2018-12-01T21:24:52.339Z,1.00
2018-12-01T21:27:22.888Z,1.03
2018-12-01T21:29:52.918Z,1.13
2018-12-01T21:32:22.939Z,0.90
2018-12-01T21:34:53.341Z,1.40
2018-12-01T21:37:23.798Z,1.20
2018-12-01T21:39:53.653Z,1.13
2018-12-01T21:42:23.504Z,0.90
2018-12-01T21:44:54.099Z,1.20
2018-12-01T21:47:24.639Z,1.07
2018-12-01T21:49:54.598Z,0.90
2018-12-01T21:52:24.430Z,1.20
2018-12-01T21:54:54.316Z,1.30
2018-12-01T21:57:24.119Z,1.83
2018-12-01T21:59:53.920Z,1.40
2018-12-01T22:02:23.832Z,1.03
2018-12-01T22:04:53.670Z,0.90
2018-12-01T22:07:30.135Z,1.10
2018-12-01T22:10:00.555Z,1.23
2018-12-01T22:12:30.508Z,1.23
2018-12-01T22:15:00.509Z,1.03
2018-12-01T22:17:30.239Z,1.23
2018-12-01T22:20:00.045Z,1.10
2018-12-01T22:22:29.983Z,1.60
2018-12-01T22:24:59.883Z,1.00
2018-12-01T22:27:29.690Z,1.00
2018-12-01T22:29:59.488Z,1.20
2018-12-01T22:32:29.384Z,1.10
2018-12-01T22:34:59.181Z,1.00
2018-12-01T22:37:29.201Z,1.07
2018-12-01T22:39:58.953Z,1.00
2018-12-01T22:42:28.638Z,1.00
2018-12-01T22:44:58.449Z,1.10
2018-12-01T22:47:28.203Z,1.20
2018-12-01T22:49:58.016Z,0.90
2018-12-01T22:52:28.240Z,1.10
2018-12-01T22:54:58.206Z,1.20
2018-12-01T22:57:27.955Z,1.07
2018-12-01T22:59:57.791Z,0.90
2018-12-01T23:02:27.525Z,1.40
2018-12-01T23:04:57.309Z,0.80
2018-12-01T23:07:27.015Z,1.30
2018-12-01T23:09:57.477Z,0.90
2018-12-01T23:12:27.835Z,1.00
2018-12-01T23:14:57.736Z,1.20
2018-12-01T23:17:27.529Z,1.10
2018-12-01T23:19:57.856Z,1.07
2018-12-01T23:22:28.265Z,0.90
2018-12-01T23:24:58.133Z,1.10
2018-12-01T23:27:28.781Z,1.10
2018-12-01T23:29:58.529Z,1.03
2018-12-01T23:32:28.371Z,1.13
2018-12-01T23:34:58.363Z,0.80
2018-12-01T23:37:28.360Z,0.90
2018-12-01T23:39:58.224Z,1.00
2018-12-01T23:42:28.006Z,0.90
2018-12-01T23:44:57.721Z,1.27
2018-12-01T23:47:27.634Z,1.00
2018-12-01T23:49:57.483Z,1.10
2018-12-01T23:52:28.379Z,1.70
2018-12-01T23:54:58.204Z,1.07
2018-12-01T23:57:28.188Z,1.10
2018-12-01T23:59:58.526Z,1.20
